LELC/MJV METAR and TAF weather

Enter ICAO airport designator
Station Type Date Time Source
LELC METAR 2021/08/05 04:00 UTC NOAA

LELC 050400Z AUTO 30004KT 9000 NCD 21/19 Q1014


Station Type Date Time Source
LELC Decoded METAR 2021/08/05 04:00 UTC NOAA

Murcia / San Javier, Spain (LELC) 37-47N 000-48W 3M
Aug 05, 2021 - 12:00 AM EDT / 2021.08.05 0400 UTC
Wind: from the WNW (300 degrees) at 5 MPH (4 KT):0
Visibility: 5 mile(s):0
Temperature: 69 F (21 C)
Dew Point: 66 F (19 C)
Relative Humidity: 88%
Pressure (altimeter): 29.94 in. Hg (1014 hPa)
ob: LELC 050400Z AUTO 30004KT 9000 NCD 21/19 Q1014
cycle: 4

Station Type Date Time Source
LELC TAF 2021/08/04 18:27 UTC NOAA

TAF LELC 041700Z 0418/0518 22009KT CAVOK TX31/0513Z TN20/0504Z
BECMG 0423/0501 04010KT
BECMG 0510/0512 12010KT

Example: see airport list